Time;durP1;ratioP1;P1;durP2;ratioP2;P2;SDS_P1;SDS_P2;PMS_P1;PMS_P2;Temp;Humidity;BMP_temperature;BMP_pressure;BME280_temperature;BME280_humidity;BME280_pressure;Samples;Min_cycle;Max_cycle;Signal;HPM_P1;HPM_P2
2022/05/10 00:02:16;;;;;;;15.07;7.03;;;;;;;15.01;79.35;101954.19;5042172;28;20091;-53
2022/05/10 00:04:49;;;;;;;12.93;7.97;;;;;;;14.96;79.26;101954.50;5044979;28;20087;-54
2022/05/10 00:07:18;;;;;;;11.02;7.70;;;;;;;14.92;79.92;101950.38;5056488;28;20068;-54
2022/05/10 00:09:47;;;;;;;14.18;7.63;;;;;;;14.86;80.20;101948.97;5064206;28;20045;-53
2022/05/10 00:12:15;;;;;;;10.85;6.95;;;;;;;14.83;80.04;101948.31;5055869;28;20507;-54
2022/05/10 00:14:43;;;;;;;11.93;6.85;;;;;;;14.76;80.97;101944.38;5061053;28;20070;-53
2022/05/10 00:17:23;;;;;;;16.63;7.35;;;;;;;14.66;81.77;101952.09;5059267;28;20053;-54
2022/05/10 00:19:53;;;;;;;14.52;6.38;;;;;;;14.63;82.40;101958.44;5053214;28;20053;-55
2022/05/10 00:22:21;;;;;;;12.88;6.32;;;;;;;14.63;82.81;101953.13;5058545;28;20468;-54
2022/05/10 00:24:50;;;;;;;12.25;6.28;;;;;;;14.61;82.34;101954.97;5062335;28;20116;-54
2022/05/10 00:27:18;;;;;;;13.88;7.05;;;;;;;14.62;82.47;101943.44;5055826;28;20049;-54
2022/05/10 00:29:46;;;;;;;14.23;6.95;;;;;;;14.64;82.14;101933.66;5058011;28;20090;-53
2022/05/10 00:32:15;;;;;;;11.70;6.82;;;;;;;14.51;82.75;101933.56;5047220;28;20056;-54
2022/05/10 00:34:43;;;;;;;12.63;6.65;;;;;;;14.46;83.10;101934.81;5058171;28;20426;-53
2022/05/10 00:37:15;;;;;;;13.77;6.80;;;;;;;14.39;83.56;101936.16;5062679;28;20044;-53
2022/05/10 00:39:43;;;;;;;10.52;6.18;;;;;;;14.34;84.04;101936.44;5058843;28;20044;-52
2022/05/10 00:42:16;;;;;;;10.15;6.60;;;;;;;14.34;83.99;101932.00;5056146;28;20072;-54
2022/05/10 00:44:49;;;;;;;11.85;6.50;;;;;;;14.29;84.18;101931.44;5063287;28;20487;-54
2022/05/10 00:47:23;;;;;;;11.70;6.68;;;;;;;14.33;84.41;101930.31;5059268;28;20135;-54
2022/05/10 00:49:59;;;;;;;13.13;7.05;;;;;;;14.24;85.26;101920.28;5057643;28;20045;-51
2022/05/10 00:52:34;;;;;;;12.90;7.97;;;;;;;14.27;85.47;101929.84;5058397;28;20125;-53
2022/05/10 00:55:09;;;;;;;12.88;7.25;;;;;;;14.27;85.29;101925.38;5058074;28;20040;-52
2022/05/10 00:57:43;;;;;;;12.95;6.85;;;;;;;14.22;85.60;101922.22;5053718;28;20048;-51
2022/05/10 01:00:14;;;;;;;12.50;7.15;;;;;;;14.17;86.10;101921.66;5061251;28;20403;-52
2022/05/10 01:02:53;;;;;;;10.93;7.07;;;;;;;14.15;86.41;101916.47;5052586;28;20056;-53
2022/05/10 01:05:30;;;;;;;14.00;7.22;;;;;;;14.13;86.58;101912.19;5046607;28;20052;-52
2022/05/10 01:08:07;;;;;;;12.68;7.63;;;;;;;14.14;86.31;101905.97;5056791;28;20064;-52
2022/05/10 01:10:43;;;;;;;15.52;7.63;;;;;;;14.06;86.99;101900.28;5059645;28;20044;-52
2022/05/10 01:13:23;;;;;;;12.70;7.50;;;;;;;14.11;86.44;101901.72;5056626;28;20492;-54
2022/05/10 01:15:59;;;;;;;12.57;7.25;;;;;;;14.00;87.25;101902.41;5057121;28;20140;-54
2022/05/10 01:18:28;;;;;;;12.18;8.05;;;;;;;14.03;87.41;101901.38;5056491;28;20525;-50
2022/05/10 01:21:01;;;;;;;14.75;8.95;;;;;;;14.04;87.32;101905.69;5056647;28;20041;-53
2022/05/10 01:23:55;;;;;;;15.10;8.98;;;;;;;13.99;87.66;101894.56;5062264;28;20391;-51
2022/05/10 01:26:29;;;;;;;13.30;8.52;;;;;;;13.92;88.00;101894.09;5051266;28;20045;-51
2022/05/10 01:29:03;;;;;;;15.80;9.60;;;;;;;13.94;87.94;101891.34;5058691;28;20045;-53
2022/05/10 01:31:36;;;;;;;14.93;8.70;;;;;;;13.92;88.36;101891.47;5054730;28;20048;-58
2022/05/10 01:34:08;;;;;;;14.73;8.80;;;;;;;13.87;89.57;101888.25;5051359;28;20659;-59
2022/05/10 01:36:42;;;;;;;13.25;8.60;;;;;;;13.86;89.73;101894.47;5054974;28;20392;-58
2022/05/10 01:39:17;;;;;;;18.33;9.30;;;;;;;13.88;89.44;101886.44;5056009;28;20053;-58
2022/05/10 01:41:50;;;;;;;14.20;9.68;;;;;;;13.80;89.82;101884.28;5056636;28;20406;-59
2022/05/10 01:44:28;;;;;;;15.13;9.38;;;;;;;13.80;90.09;101881.66;5064195;28;20140;-58
2022/05/10 01:47:04;;;;;;;14.52;9.68;;;;;;;13.72;90.95;101876.81;5064209;28;20509;-59
2022/05/10 01:49:41;;;;;;;17.33;10.27;;;;;;;13.81;90.14;101875.38;5063826;28;20131;-58
2022/05/10 01:52:15;;;;;;;16.83;10.80;;;;;;;13.73;90.48;101873.25;5064810;28;20045;-59
2022/05/10 01:55:07;;;;;;;17.30;10.93;;;;;;;13.71;90.76;101869.84;5057707;28;20402;-59
2022/05/10 01:57:39;;;;;;;16.23;10.13;;;;;;;13.74;90.25;101869.63;5061831;28;20064;-59
2022/05/10 02:00:13;;;;;;;16.70;11.02;;;;;;;13.73;90.78;101870.59;5065171;28;20072;-59
2022/05/10 02:02:49;;;;;;;14.52;10.70;;;;;;;13.67;90.67;101871.84;5061769;28;20056;-59
2022/05/10 02:05:26;;;;;;;13.88;10.55;;;;;;;13.58;91.54;101863.59;5035561;28;20057;-58
2022/05/10 02:08:00;;;;;;;15.23;10.52;;;;;;;13.60;91.21;101859.94;5039705;28;20056;-58
2022/05/10 02:10:35;;;;;;;20.42;10.90;;;;;;;13.61;91.34;101855.50;5053932;28;20068;-59
2022/05/10 02:17:40;;;;;;;15.63;10.80;;;;;;;13.53;91.81;101850.69;4987384;23;20062;-58
2022/05/10 02:20:14;;;;;;;18.27;12.00;;;;;;;13.53;92.14;101848.03;4991991;28;20080;-59
2022/05/10 02:22:50;;;;;;;18.15;11.60;;;;;;;13.49;92.14;101846.53;4991598;28;20046;-59
2022/05/10 02:25:25;;;;;;;16.48;11.00;;;;;;;13.42;92.57;101847.88;4994225;28;20051;-59
2022/05/10 02:27:57;;;;;;;18.70;11.75;;;;;;;13.44;93.21;101840.69;4995900;28;20054;-59
2022/05/10 02:30:29;;;;;;;17.10;11.52;;;;;;;13.47;92.84;101837.84;4993461;28;20050;-59
2022/05/10 02:33:07;;;;;;;19.42;12.75;;;;;;;13.41;93.18;101832.94;4991587;28;20061;-58
2022/05/10 02:35:41;;;;;;;17.70;12.38;;;;;;;13.37;93.68;101828.78;4990995;28;20046;-59
2022/05/10 02:38:11;;;;;;;20.58;13.05;;;;;;;13.39;93.41;101829.53;4991911;28;20489;-59
2022/05/10 02:40:42;;;;;;;19.20;12.43;;;;;;;13.35;93.66;101829.72;4991673;28;20058;-58
2022/05/10 02:43:14;;;;;;;16.98;12.40;;;;;;;13.33;93.35;101825.44;4992415;28;20379;-58
2022/05/10 02:45:43;;;;;;;23.25;12.85;;;;;;;13.30;93.73;101820.38;4990340;28;20062;-58
2022/05/10 02:48:21;;;;;;;18.65;12.95;;;;;;;13.31;93.58;101822.06;4991844;28;20101;-58
2022/05/10 02:50:50;;;;;;;18.00;12.00;;;;;;;13.28;93.81;101824.88;4994554;28;20061;-58
2022/05/10 02:53:18;;;;;;;16.58;12.07;;;;;;;13.31;93.95;101828.19;4994618;28;20066;-58
2022/05/10 02:55:51;;;;;;;17.92;12.18;;;;;;;13.28;93.74;101825.75;4990302;28;20066;-58
2022/05/10 02:58:30;;;;;;;17.55;13.00;;;;;;;13.35;95.51;101823.56;4991705;28;20486;-58
2022/05/10 03:01:05;;;;;;;18.23;11.68;;;;;;;13.32;95.92;101815.81;4994656;28;20051;-58
2022/05/10 03:03:35;;;;;;;17.85;11.32;;;;;;;13.30;96.43;101818.56;4995461;28;20421;-59
2022/05/10 03:06:04;;;;;;;15.55;11.65;;;;;;;13.32;96.05;101815.81;4995141;28;20054;-58
2022/05/10 03:08:32;;;;;;;15.75;12.43;;;;;;;13.30;96.62;101813.28;4993179;28;20518;-58
2022/05/10 03:11:00;;;;;;;18.00;12.27;;;;;;;13.22;98.26;101814.69;4991038;28;20070;-59
2022/05/10 03:13:28;;;;;;;16.45;12.48;;;;;;;13.29;97.88;101810.72;4991378;28;20065;-58
2022/05/10 03:15:57;;;;;;;17.92;12.13;;;;;;;13.27;98.62;101807.34;4988943;28;20034;-58
2022/05/10 03:18:25;;;;;;;17.73;12.02;;;;;;;13.22;98.69;101812.06;4990871;28;20109;-59
2022/05/10 03:20:54;;;;;;;21.13;13.25;;;;;;;13.18;98.40;101806.09;4990502;28;20042;-59
2022/05/10 03:23:22;;;;;;;17.38;12.18;;;;;;;13.20;98.48;101793.66;4991403;28;20105;-58
2022/05/10 03:25:51;;;;;;;19.60;13.00;;;;;;;13.21;98.46;101791.88;4990836;28;20058;-59
2022/05/10 03:28:19;;;;;;;17.00;12.60;;;;;;;13.14;98.13;101788.75;4994613;28;20378;-59
2022/05/10 03:30:48;;;;;;;17.23;12.77;;;;;;;13.24;98.40;101792.53;4994228;28;20069;-58
2022/05/10 03:33:16;;;;;;;18.73;13.00;;;;;;;13.25;98.07;101796.88;4994682;28;20054;-58
2022/05/10 03:35:44;;;;;;;19.63;13.18;;;;;;;13.27;97.42;101791.50;4991429;28;20101;-59
2022/05/10 03:38:14;;;;;;;16.38;12.75;;;;;;;13.27;98.02;101787.06;4991386;28;20066;-58
2022/05/10 03:40:43;;;;;;;18.88;12.98;;;;;;;13.22;98.23;101794.41;4990158;28;20050;-58
2022/05/10 03:43:11;;;;;;;20.17;13.70;;;;;;;13.20;98.08;101791.03;4990373;28;20042;-58
2022/05/10 03:45:40;;;;;;;18.13;12.93;;;;;;;13.24;98.31;101784.59;4992055;28;20097;-58
2022/05/10 03:48:09;;;;;;;19.05;13.55;;;;;;;13.19;99.00;101781.41;4992846;28;20050;-53
2022/05/10 03:50:37;;;;;;;19.35;13.77;;;;;;;13.21;99.85;101776.88;4990168;28;20057;-54
2022/05/10 03:53:06;;;;;;;17.83;13.52;;;;;;;13.25;99.64;101783.69;4990357;28;20046;-51
2022/05/10 03:55:35;;;;;;;19.23;14.73;;;;;;;13.18;99.57;101777.03;4990739;28;20057;-53
2022/05/10 03:58:05;;;;;;;20.63;13.20;;;;;;;13.21;100.00;101771.59;4989674;28;20406;-53
2022/05/10 04:00:33;;;;;;;21.67;15.02;;;;;;;13.15;100.00;101774.59;4992074;28;20050;-52
2022/05/10 04:03:01;;;;;;;19.58;14.40;;;;;;;13.16;100.00;101771.88;4994161;28;20046;-52
2022/05/10 04:05:29;;;;;;;20.45;15.15;;;;;;;13.17;100.00;101773.56;4990014;28;20081;-53
2022/05/10 04:07:57;;;;;;;21.20;15.35;;;;;;;13.19;100.00;101765.56;4989824;28;20062;-55
2022/05/10 04:10:26;;;;;;;21.40;14.63;;;;;;;13.25;100.00;101765.19;4990514;28;20058;-53
2022/05/10 04:12:55;;;;;;;21.50;14.55;;;;;;;13.22;100.00;101765.34;4989825;28;20146;-54
2022/05/10 04:15:23;;;;;;;22.73;15.75;;;;;;;13.17;100.00;101765.66;4989433;28;20124;-55
2022/05/10 04:17:52;;;;;;;21.10;14.40;;;;;;;13.21;100.00;101770.72;4989308;28;20078;-54
2022/05/10 04:20:20;;;;;;;21.08;15.27;;;;;;;13.22;100.00;101767.16;4989874;28;20054;-52
2022/05/10 04:22:48;;;;;;;21.13;15.50;;;;;;;13.16;100.00;101768.38;4989830;28;20153;-52
2022/05/10 04:25:21;;;;;;;22.05;15.55;;;;;;;13.18;100.00;101771.75;4990144;28;20069;-54
2022/05/10 04:27:50;;;;;;;20.75;14.73;;;;;;;13.25;100.00;101772.25;4989636;28;20058;-53
2022/05/10 04:30:21;;;;;;;24.45;15.43;;;;;;;13.25;100.00;101767.81;4989438;28;20097;-53
2022/05/10 04:32:49;;;;;;;21.65;15.30;;;;;;;13.25;100.00;101767.81;4989011;28;20101;-54
2022/05/10 04:35:17;;;;;;;20.20;14.85;;;;;;;13.28;100.00;101762.34;4989659;28;20043;-53
2022/05/10 04:37:45;;;;;;;18.70;14.60;;;;;;;13.33;100.00;101756.75;4989357;28;20070;-50
2022/05/10 04:42:59;;;;;;;23.25;14.88;;;;;;;13.32;100.00;101757.69;4992344;28;20057;-52
2022/05/10 04:45:29;;;;;;;21.17;15.30;;;;;;;13.34;100.00;101756.66;4993564;28;20516;-52
2022/05/10 04:47:57;;;;;;;20.85;15.10;;;;;;;13.36;100.00;101761.88;4993847;28;20054;-54
2022/05/10 04:50:25;;;;;;;21.48;15.90;;;;;;;13.37;100.00;101752.19;4993423;28;20054;-54
2022/05/10 04:52:53;;;;;;;21.40;15.77;;;;;;;13.44;100.00;101756.13;4991337;28;20096;-54
2022/05/10 04:55:21;;;;;;;19.20;15.10;;;;;;;13.47;100.00;101756.78;4989530;28;20093;-51
2022/05/10 04:57:49;;;;;;;20.92;15.40;;;;;;;13.54;100.00;101746.69;4989128;28;20054;-55
2022/05/10 05:00:19;;;;;;;18.88;15.10;;;;;;;13.60;100.00;101746.28;4993241;28;20112;-54
2022/05/10 05:02:48;;;;;;;19.70;15.02;;;;;;;13.65;100.00;101752.13;4991859;28;20042;-53
2022/05/10 05:05:16;;;;;;;22.90;16.85;;;;;;;13.66;100.00;101751.19;4988272;28;20092;-55
2022/05/10 05:07:44;;;;;;;22.60;17.35;;;;;;;13.76;100.00;101750.59;4989155;28;20042;-53
2022/05/10 05:10:12;;;;;;;22.23;17.08;;;;;;;13.86;100.00;101757.84;4989431;28;20112;-54
2022/05/10 05:12:40;;;;;;;26.45;17.30;;;;;;;13.91;100.00;101746.97;4988763;28;20445;-55
2022/05/10 05:15:12;;;;;;;23.10;16.75;;;;;;;14.01;100.00;101755.13;4989536;28;20635;-54
2022/05/10 05:17:46;;;;;;;23.33;17.65;;;;;;;13.99;100.00;101757.03;4989478;28;20141;-54
2022/05/10 05:20:15;;;;;;;25.77;16.55;;;;;;;14.05;100.00;101753.16;4993005;28;20112;-53
2022/05/10 05:22:43;;;;;;;26.45;16.73;;;;;;;14.08;100.00;101759.06;4992919;28;20046;-54
2022/05/10 05:25:11;;;;;;;24.70;16.95;;;;;;;14.17;100.00;101757.63;4992318;28;20486;-53
2022/05/10 05:27:39;;;;;;;22.35;16.63;;;;;;;14.24;100.00;101758.06;4988966;28;20405;-53
2022/05/10 05:30:13;;;;;;;21.35;17.75;;;;;;;14.31;100.00;101754.91;4989226;28;20062;-53
2022/05/10 05:32:41;;;;;;;23.27;17.27;;;;;;;14.38;100.00;101752.69;4987195;28;20046;-55
2022/05/10 05:35:11;;;;;;;29.15;20.88;;;;;;;14.43;100.00;101750.59;4988538;28;20058;-52
2022/05/10 05:37:40;;;;;;;29.33;20.98;;;;;;;14.51;98.00;101755.38;4988404;28;20053;-58
2022/05/10 05:40:10;;;;;;;31.55;21.75;;;;;;;14.64;96.32;101755.41;4989690;28;20062;-58
2022/05/10 05:42:46;;;;;;;30.08;21.48;;;;;;;14.69;96.32;101751.50;4989759;28;20046;-58
2022/05/10 05:45:16;;;;;;;29.60;21.40;;;;;;;14.75;95.75;101757.34;4988356;28;20494;-58
2022/05/10 05:47:44;;;;;;;29.45;21.27;;;;;;;14.80;96.02;101756.06;4987774;28;20417;-58
2022/05/10 05:50:15;;;;;;;29.08;20.23;;;;;;;14.83;95.28;101750.59;4989277;28;20068;-58
2022/05/10 05:52:45;;;;;;;27.40;20.88;;;;;;;14.89;95.46;101757.25;4988674;28;20592;-59
2022/05/10 05:55:14;;;;;;;28.27;19.50;;;;;;;14.97;95.46;101746.97;4989119;28;20046;-58
2022/05/10 05:57:42;;;;;;;27.10;19.38;;;;;;;15.04;94.67;101748.22;4991023;28;20058;-58
2022/05/10 06:00:19;;;;;;;27.65;18.95;;;;;;;15.16;92.55;101743.88;4989156;28;20050;-58
2022/05/10 06:02:47;;;;;;;26.48;20.00;;;;;;;15.32;91.75;101751.56;4987678;28;20050;-58
2022/05/10 06:05:15;;;;;;;30.58;19.58;;;;;;;15.38;92.34;101748.50;4988594;28;20083;-58
2022/05/10 06:07:44;;;;;;;27.48;19.55;;;;;;;15.41;92.49;101744.78;4990320;28;20046;-57
2022/05/10 06:10:13;;;;;;;26.27;18.85;;;;;;;15.50;92.33;101741.47;4989730;28;20046;-58
2022/05/10 06:12:43;;;;;;;24.75;18.67;;;;;;;15.59;90.93;101742.59;4988280;28;20050;-57
2022/05/10 06:15:14;;;;;;;28.70;19.50;;;;;;;15.63;90.62;101738.78;4992214;28;20125;-58
2022/05/10 06:17:43;;;;;;;25.98;19.27;;;;;;;15.68;90.46;101734.00;4991016;28;20144;-58
2022/05/10 06:20:14;;;;;;;26.23;18.95;;;;;;;15.82;89.45;101737.47;4988648;28;20745;-58
2022/05/10 06:22:44;;;;;;;28.40;18.90;;;;;;;15.90;88.86;101737.75;4988384;28;20405;-58
2022/05/10 06:25:17;;;;;;;29.30;19.95;;;;;;;16.11;86.99;101731.81;4989059;28;20041;-59
2022/05/10 06:27:46;;;;;;;26.58;19.13;;;;;;;16.15;87.41;101736.78;4988479;28;20130;-58
2022/05/10 06:30:15;;;;;;;26.40;18.88;;;;;;;16.24;87.43;101735.25;4990382;28;20085;-59
2022/05/10 06:32:43;;;;;;;28.95;20.63;;;;;;;16.24;84.89;101727.28;4991007;28;20050;-59
2022/05/10 06:35:11;;;;;;;28.98;21.50;;;;;;;16.33;87.73;101728.41;4993938;28;20568;-58
2022/05/10 06:40:33;;;;;;;27.88;18.98;;;;;;;16.58;84.94;101726.53;4991925;28;20050;-59
2022/05/10 06:43:02;;;;;;;27.50;19.00;;;;;;;16.68;83.62;101723.03;4991378;28;20485;-58
2022/05/10 06:45:30;;;;;;;27.30;18.83;;;;;;;16.76;83.48;101719.81;4990500;28;20050;-58
2022/05/10 06:47:58;;;;;;;27.85;18.98;;;;;;;16.83;83.68;101709.53;4990912;28;20046;-59
2022/05/10 06:50:27;;;;;;;30.08;18.98;;;;;;;16.93;83.26;101710.53;4991782;28;20568;-58
2022/05/10 06:52:57;;;;;;;26.85;19.85;;;;;;;17.15;82.59;101714.16;4991538;28;20112;-58
2022/05/10 06:55:27;;;;;;;30.15;19.50;;;;;;;17.21;83.11;101711.03;4991887;28;20052;-58
2022/05/10 06:57:56;;;;;;;28.45;19.45;;;;;;;17.36;82.59;101701.81;4991082;28;20050;-58
2022/05/10 07:00:32;;;;;;;28.30;19.17;;;;;;;17.49;82.32;101700.81;4990577;28;20050;-58
2022/05/10 07:03:04;;;;;;;25.63;17.92;;;;;;;17.58;83.12;101706.22;4990701;28;20082;-58
2022/05/10 07:05:33;;;;;;;29.25;19.50;;;;;;;17.67;81.07;101702.00;4991299;28;20061;-58
2022/05/10 07:08:01;;;;;;;24.27;18.35;;;;;;;17.76;81.88;101691.56;4992890;28;20046;-58
2022/05/10 07:10:31;;;;;;;24.98;19.33;;;;;;;17.92;82.71;101693.84;4992576;28;20061;-60
2022/05/10 07:13:00;;;;;;;24.73;19.85;;;;;;;17.98;81.83;101691.47;4990566;28;20100;-59
2022/05/10 07:15:30;;;;;;;25.33;19.05;;;;;;;18.11;81.30;101695.81;4990071;28;20509;-60
2022/05/10 07:17:58;;;;;;;22.45;18.17;;;;;;;18.18;79.67;101689.81;4990310;28;20502;-58
2022/05/10 07:20:26;;;;;;;25.20;18.42;;;;;;;18.29;79.94;101691.56;4991165;28;20417;-58
2022/05/10 07:22:54;;;;;;;24.05;19.83;;;;;;;18.40;80.25;101690.66;4990881;28;20049;-60
2022/05/10 07:25:25;;;;;;;24.15;19.45;;;;;;;18.54;80.13;101677.03;4994284;28;20092;-60
2022/05/10 07:27:54;;;;;;;26.00;19.33;;;;;;;18.72;78.52;101682.56;4990838;28;20047;-58
2022/05/10 07:30:26;;;;;;;27.88;19.00;;;;;;;18.88;79.27;101675.94;4990737;28;20070;-60
2022/05/10 07:32:54;;;;;;;23.17;18.75;;;;;;;18.92;80.05;101675.53;4992944;28;20117;-60
2022/05/10 07:38:07;;;;;;;22.70;18.10;;;;;;;19.20;78.06;101673.09;4993318;28;20539;-58
2022/05/10 07:40:35;;;;;;;24.13;17.88;;;;;;;19.42;77.18;101665.84;4990304;28;20046;-58
2022/05/10 07:43:03;;;;;;;21.65;17.25;;;;;;;19.65;76.96;101671.75;4990950;28;20058;-58
2022/05/10 07:45:33;;;;;;;23.42;17.23;;;;;;;19.96;72.81;101666.31;4994569;28;20050;-58
2022/05/10 07:48:02;;;;;;;23.50;16.98;;;;;;;20.26;72.65;101667.13;4994753;28;20054;-58
2022/05/10 07:50:30;;;;;;;20.38;16.30;;;;;;;20.63;71.53;101669.00;4994138;28;20052;-59
2022/05/10 07:53:00;;;;;;;21.45;16.63;;;;;;;20.85;70.77;101664.28;4990450;28;20100;-58
2022/05/10 07:55:28;;;;;;;18.02;14.57;;;;;;;21.02;68.06;101660.81;4990575;28;20093;-58
2022/05/10 07:57:56;;;;;;;17.95;14.65;;;;;;;21.19;68.06;101667.19;4989427;28;20054;-58
2022/05/10 08:00:24;;;;;;;18.80;14.38;;;;;;;21.22;68.76;101652.69;4989342;28;20564;-58
2022/05/10 08:02:54;;;;;;;18.88;13.95;;;;;;;21.22;65.62;101658.88;4989994;28;20501;-58
2022/05/10 08:05:24;;;;;;;15.90;13.43;;;;;;;21.51;66.08;101657.81;4989760;28;20129;-58
2022/05/10 08:07:52;;;;;;;19.77;14.30;;;;;;;21.74;65.30;101655.56;4990146;28;20049;-58
2022/05/10 08:10:20;;;;;;;18.20;12.27;;;;;;;21.92;64.35;101649.34;4990297;28;20042;-58
2022/05/10 08:12:48;;;;;;;16.33;12.45;;;;;;;22.14;64.91;101644.50;4991397;28;20050;-58
2022/05/10 08:15:16;;;;;;;17.85;13.95;;;;;;;22.32;63.76;101647.97;4990402;28;20414;-58
2022/05/10 08:17:45;;;;;;;16.38;13.40;;;;;;;22.44;63.44;101649.41;4987890;28;20916;-58
2022/05/10 08:20:14;;;;;;;17.92;12.60;;;;;;;22.54;63.68;101632.38;4993004;28;20056;-58
2022/05/10 08:22:43;;;;;;;16.52;12.57;;;;;;;22.67;63.50;101639.97;4989407;28;20049;-58
2022/05/10 08:25:12;;;;;;;14.98;11.43;;;;;;;22.89;62.76;101627.81;4989908;28;20108;-58
2022/05/10 08:27:40;;;;;;;14.57;10.05;;;;;;;22.82;61.07;101633.00;4989360;28;20552;-58
2022/05/10 08:30:09;;;;;;;12.63;8.63;;;;;;;22.92;59.18;101627.53;4989666;28;20049;-59
2022/05/10 08:32:38;;;;;;;10.80;8.52;;;;;;;22.85;58.03;101627.31;4991769;28;20077;-57
2022/05/10 08:35:28;;;;;;;11.02;8.00;;;;;;;23.07;58.48;101619.66;4993182;28;20049;-58
2022/05/10 08:37:56;;;;;;;12.40;8.43;;;;;;;23.26;57.82;101621.25;4991210;28;20133;-58
2022/05/10 08:40:28;;;;;;;10.60;7.78;;;;;;;23.48;57.21;101629.66;4989531;28;20049;-57
2022/05/10 08:43:01;;;;;;;12.88;9.02;;;;;;;23.59;54.82;101621.31;4992797;28;20503;-58
2022/05/10 08:45:32;;;;;;;12.35;8.15;;;;;;;23.70;54.08;101622.81;4989123;28;20518;-58
2022/05/10 08:48:00;;;;;;;12.43;7.68;;;;;;;23.63;55.70;101618.09;4990677;28;20046;-58
2022/05/10 08:50:30;;;;;;;12.07;7.95;;;;;;;23.52;55.78;101625.63;4993186;28;20046;-58
2022/05/10 08:53:07;;;;;;;10.52;7.68;;;;;;;23.61;55.79;101621.97;4989466;28;20051;-58
2022/05/10 08:55:42;;;;;;;13.40;8.50;;;;;;;23.48;54.98;101622.47;4989424;28;20611;-57
2022/05/10 08:58:29;;;;;;;13.25;7.70;;;;;;;23.59;55.96;101618.63;4988271;28;20050;-57
2022/05/10 09:01:21;;;;;;;12.80;7.47;;;;;;;23.60;53.96;101618.44;4988172;28;20053;-58
2022/05/10 09:03:58;;;;;;;10.90;6.53;;;;;;;23.70;55.49;101609.41;4989026;28;20049;-58
2022/05/10 09:06:36;;;;;;;13.18;8.02;;;;;;;23.76;55.11;101614.06;4989361;28;20104;-59
2022/05/10 09:09:17;;;;;;;12.02;7.45;;;;;;;23.53;53.55;101611.22;4989483;28;20046;-58
2022/05/10 09:12:10;;;;;;;12.63;7.95;;;;;;;23.43;53.77;101600.66;4988533;28;20108;-59
2022/05/10 09:14:45;;;;;;;11.82;7.30;;;;;;;23.35;54.96;101606.84;4989245;28;20054;-59
2022/05/10 09:17:15;;;;;;;10.60;7.47;;;;;;;23.45;54.57;101601.31;4987799;28;20062;-58
2022/05/10 09:19:44;;;;;;;14.18;7.10;;;;;;;23.53;55.27;101595.97;4988908;28;20050;-55
2022/05/10 09:22:43;;;;;;;10.82;7.28;;;;;;;23.59;55.00;101592.59;4989211;28;20198;-54
2022/05/10 09:25:21;;;;;;;12.32;7.25;;;;;;;23.64;53.86;101586.72;4989617;28;20440;-55
2022/05/10 09:27:50;;;;;;;13.00;7.97;;;;;;;23.82;53.15;101593.75;4989078;28;20527;-58
2022/05/10 09:30:30;;;;;;;14.65;7.05;;;;;;;23.89;53.76;101592.94;4988099;28;20050;-57
2022/05/10 09:36:04;;;;;;;11.07;6.97;;;;;;;24.19;53.00;101592.41;4988107;28;20065;-58
2022/05/10 09:38:34;;;;;;;12.18;7.22;;;;;;;24.17;52.29;101580.97;4989148;28;20046;-58
2022/05/10 09:41:02;;;;;;;12.68;6.75;;;;;;;24.26;51.00;101577.25;4990727;28;20061;-59
2022/05/10 09:43:32;;;;;;;10.18;6.68;;;;;;;24.46;49.95;101573.16;4988644;28;20497;-58
2022/05/10 09:46:10;;;;;;;9.77;5.85;;;;;;;24.89;51.41;101556.66;4987625;28;20073;-58
2022/05/10 09:48:40;;;;;;;12.68;5.75;;;;;;;25.14;49.55;101573.50;4988293;28;20050;-58
2022/05/10 09:51:33;;;;;;;11.07;5.57;;;;;;;25.27;49.71;101564.81;4988937;28;20490;-58
2022/05/10 09:54:05;;;;;;;8.30;5.30;;;;;;;25.45;48.57;101556.44;4989282;28;20080;-58
2022/05/10 09:56:39;;;;;;;10.88;5.28;;;;;;;25.46;45.98;101560.81;4988590;28;20852;-57
2022/05/10 09:59:29;;;;;;;11.10;5.60;;;;;;;25.44;44.54;101554.78;4990823;28;20429;-59
2022/05/10 10:01:59;;;;;;;8.55;4.97;;;;;;;25.37;46.21;101564.59;4992717;28;20057;-59
2022/05/10 10:04:31;;;;;;;10.43;4.40;;;;;;;25.59;45.72;101551.28;4994300;28;20054;-58
2022/05/10 10:07:07;;;;;;;8.55;4.90;;;;;;;25.93;45.61;101563.41;4992326;28;20720;-58
2022/05/10 10:09:38;;;;;;;9.68;4.70;;;;;;;26.27;44.73;101560.22;4992643;28;20051;-58
2022/05/10 10:12:15;;;;;;;12.13;4.90;;;;;;;26.62;42.88;101554.22;4994895;28;20101;-58
2022/05/10 10:14:45;;;;;;;9.50;4.60;;;;;;;26.81;42.35;101550.91;4991279;28;20065;-58
2022/05/10 10:17:25;;;;;;;9.93;4.30;;;;;;;26.90;40.69;101548.09;4990190;28;20042;-59
2022/05/10 10:20:02;;;;;;;8.25;4.18;;;;;;;26.95;41.86;101543.78;4991768;28;20061;-58
2022/05/10 10:22:40;;;;;;;8.82;4.43;;;;;;;26.75;41.65;101551.69;4994749;28;20141;-58
2022/05/10 10:25:17;;;;;;;8.90;4.38;;;;;;;26.85;41.00;101547.84;4992467;28;20058;-60
2022/05/10 10:27:50;;;;;;;10.05;4.07;;;;;;;27.26;41.40;101552.63;4993517;28;20540;-57
2022/05/10 10:30:24;;;;;;;10.95;4.45;;;;;;;27.54;41.55;101544.59;4993499;28;20062;-58
2022/05/10 10:32:57;;;;;;;8.95;4.00;;;;;;;27.65;40.44;101544.03;4991904;28;20042;-59
2022/05/10 10:35:34;;;;;;;10.85;4.65;;;;;;;27.51;38.86;101538.72;4991648;28;20054;-60
2022/05/10 10:38:12;;;;;;;10.18;4.50;;;;;;;27.62;39.46;101541.75;4992065;28;20062;-59
2022/05/10 10:40:47;;;;;;;10.45;4.10;;;;;;;27.62;39.38;101528.22;4994108;28;20054;-59
2022/05/10 10:43:23;;;;;;;10.80;4.45;;;;;;;27.80;38.95;101532.28;4995873;28;20054;-58
2022/05/10 10:45:58;;;;;;;7.00;3.92;;;;;;;28.10;38.71;101537.47;4995681;28;20039;-59
2022/05/10 10:48:35;;;;;;;11.38;3.90;;;;;;;28.54;38.47;101527.25;4991514;28;20494;-59
2022/05/10 10:51:03;;;;;;;9.50;3.85;;;;;;;28.66;36.55;101526.50;4991761;28;20054;-60
2022/05/10 10:53:34;;;;;;;11.57;4.32;;;;;;;28.73;36.34;101512.16;4991717;28;20564;-59
2022/05/10 10:56:29;;;;;;;12.65;4.20;;;;;;;29.13;35.90;101517.63;4991434;28;20038;-58
2022/05/10 10:59:12;;;;;;;9.15;3.95;;;;;;;29.44;36.78;101508.09;4989231;28;20129;-59
2022/05/10 11:01:55;;;;;;;8.07;3.80;;;;;;;29.38;35.53;101511.63;4992876;28;20058;-59
2022/05/10 11:04:47;;;;;;;9.43;3.97;;;;;;;29.64;34.62;101510.75;4995434;28;20061;-60
2022/05/10 11:07:23;;;;;;;8.98;4.03;;;;;;;29.75;34.26;101507.41;4991315;28;20567;-59
2022/05/10 11:09:56;;;;;;;11.00;4.00;;;;;;;30.13;34.64;101501.28;4992003;28;20121;-60
2022/05/10 11:12:48;;;;;;;8.43;3.85;;;;;;;30.06;34.93;101513.19;4991119;28;20054;-59
2022/05/10 11:15:37;;;;;;;9.90;4.38;;;;;;;29.70;35.15;101504.50;4990436;28;20061;-60
2022/05/10 11:18:30;;;;;;;10.20;3.78;;;;;;;29.44;34.79;101497.25;4990586;28;20066;-62
2022/05/10 11:21:04;;;;;;;;;;;;;;;29.24;36.22;101494.50;4991338;28;20425;-61
2022/05/10 11:23:41;;;;;;;12.02;4.28;;;;;;;29.09;36.32;101492.84;4994304;28;20016;-60
2022/05/10 11:26:28;;;;;;;11.02;4.60;;;;;;;29.15;35.98;101485.75;4991345;28;20543;-59
2022/05/10 11:29:16;;;;;;;10.70;4.68;;;;;;;28.83;35.87;101480.94;4991151;28;20108;-59
2022/05/10 11:31:56;;;;;;;12.20;4.32;;;;;;;28.75;35.64;101474.91;4989741;28;20065;-59
2022/05/10 11:34:51;;;;;;;17.08;4.57;;;;;;;28.36;36.29;101466.47;4990464;28;20486;-61
2022/05/10 11:37:25;;;;;;;9.30;4.07;;;;;;;28.40;36.07;101477.69;4990496;28;20039;-60
2022/05/10 11:40:20;;;;;;;8.05;3.78;;;;;;;28.78;36.56;101479.91;4989951;28;20490;-60
2022/05/10 11:43:10;;;;;;;7.82;3.90;;;;;;;28.80;35.18;101467.00;4990760;28;20062;-60
2022/05/10 11:46:24;;;;;;;7.35;3.90;;;;;;;28.75;35.90;101472.19;4990354;28;20058;-61
2022/05/10 11:49:20;;;;;;;10.30;3.92;;;;;;;28.67;36.31;101467.81;4991132;28;20065;-60
2022/05/10 11:52:01;;;;;;;6.55;3.55;;;;;;;28.64;35.22;101462.81;4990868;28;20104;-61
2022/05/10 11:55:03;;;;;;;8.18;3.78;;;;;;;28.42;35.69;101462.94;4990565;28;20050;-58